createdAt,value
2024-03-16T00:02:56.270Z,9.70
2024-03-16T00:06:59.981Z,12.30
2024-03-16T00:11:03.080Z,10.40
2024-03-16T00:15:06.198Z,11.20
2024-03-16T00:19:09.193Z,10.60
2024-03-16T00:23:12.050Z,11.70
2024-03-16T00:27:14.943Z,12.60
2024-03-16T00:31:19.467Z,9.70
2024-03-16T00:35:22.398Z,8.20
2024-03-16T00:39:25.481Z,9.60
2024-03-16T00:43:28.513Z,9.60
2024-03-16T00:47:31.366Z,8.90
2024-03-16T00:51:34.431Z,8.70
2024-03-16T00:55:37.380Z,9.00
2024-03-16T00:59:40.233Z,13.50
2024-03-16T01:03:43.042Z,13.60
2024-03-16T01:07:46.268Z,10.40
2024-03-16T01:11:49.067Z,9.80
2024-03-16T01:15:53.175Z,7.80
2024-03-16T01:19:56.876Z,10.50
2024-03-16T01:24:01.000Z,8.40
2024-03-16T01:28:04.266Z,9.70
2024-03-16T01:32:09.682Z,11.60
2024-03-16T01:36:13.179Z,10.90
2024-03-16T01:40:16.385Z,11.80
2024-03-16T01:44:19.178Z,13.50
2024-03-16T01:48:22.167Z,12.30
2024-03-16T01:52:25.098Z,13.00
2024-03-16T01:56:28.181Z,10.80
2024-03-16T02:00:35.476Z,11.80
2024-03-16T02:04:38.351Z,11.70
2024-03-16T02:08:41.212Z,14.00
2024-03-16T02:12:44.384Z,11.50
2024-03-16T02:16:48.015Z,11.80
2024-03-16T02:20:50.942Z,10.70
2024-03-16T02:24:53.950Z,9.00
2024-03-16T02:28:57.313Z,9.10
2024-03-16T02:33:00.336Z,9.00
2024-03-16T02:37:04.850Z,9.10
2024-03-16T02:41:08.619Z,6.60
2024-03-16T02:45:12.390Z,7.00
2024-03-16T02:49:16.355Z,6.20
2024-03-16T02:53:19.413Z,8.00
2024-03-16T02:57:23.584Z,7.10
2024-03-16T03:01:26.526Z,7.00
2024-03-16T03:05:29.465Z,7.00
2024-03-16T03:09:34.368Z,8.30
2024-03-16T03:13:37.546Z,7.80
2024-03-16T03:17:40.893Z,7.10
2024-03-16T03:21:44.255Z,7.90
2024-03-16T03:25:50.231Z,8.30
2024-03-16T03:29:53.103Z,8.20
2024-03-16T03:33:56.042Z,8.00
2024-03-16T03:37:59.169Z,8.50
2024-03-16T03:42:01.954Z,9.60
2024-03-16T03:46:06.313Z,7.40
2024-03-16T03:50:12.474Z,8.00
2024-03-16T03:54:15.335Z,8.50
2024-03-16T03:58:19.956Z,8.20
2024-03-16T04:02:22.868Z,7.00
2024-03-16T04:06:26.873Z,7.80
2024-03-16T04:10:29.695Z,8.20
2024-03-16T04:14:32.730Z,9.00
2024-03-16T04:18:35.924Z,8.10
2024-03-16T04:22:38.676Z,8.00
2024-03-16T04:26:41.642Z,9.40
2024-03-16T04:30:44.720Z,10.00
2024-03-16T04:34:47.499Z,8.90
2024-03-16T04:38:50.340Z,10.60
2024-03-16T04:42:53.158Z,10.20
2024-03-16T04:46:56.056Z,9.40
2024-03-16T04:50:58.986Z,10.30
2024-03-16T04:55:01.953Z,8.90
2024-03-16T04:59:04.838Z,11.10
2024-03-16T05:03:08.127Z,10.50
2024-03-16T05:07:11.066Z,9.10
2024-03-16T05:11:13.992Z,8.60
2024-03-16T05:15:16.849Z,9.00
2024-03-16T05:19:19.886Z,9.60
2024-03-16T05:23:22.787Z,10.00
2024-03-16T05:27:25.772Z,9.90
2024-03-16T05:31:28.758Z,10.50
2024-03-16T05:35:31.754Z,9.70
2024-03-16T05:39:34.829Z,9.90
2024-03-16T05:43:39.315Z,10.50
2024-03-16T05:47:42.584Z,8.40
2024-03-16T05:51:45.618Z,9.90
2024-03-16T05:55:48.402Z,9.60
2024-03-16T05:59:51.449Z,10.00
2024-03-16T06:03:54.264Z,8.70
2024-03-16T06:07:57.057Z,8.60
2024-03-16T06:11:59.873Z,9.00
2024-03-16T06:16:03.489Z,9.10
2024-03-16T06:20:07.941Z,8.50
2024-03-16T06:24:11.115Z,8.70
2024-03-16T06:28:18.049Z,9.70
2024-03-16T06:32:21.710Z,9.50
2024-03-16T06:36:24.469Z,8.70
2024-03-16T06:40:27.591Z,9.10
2024-03-16T06:44:31.419Z,8.90
2024-03-16T06:48:34.297Z,8.70
2024-03-16T06:52:37.183Z,6.70
2024-03-16T06:56:40.486Z,7.60
2024-03-16T07:00:43.257Z,4.70
2024-03-16T07:04:45.994Z,4.80
2024-03-16T07:08:48.735Z,4.20
2024-03-16T07:12:51.608Z,3.50
2024-03-16T07:16:56.130Z,2.60
2024-03-16T07:20:59.054Z,3.60
2024-03-16T07:25:02.047Z,4.30
2024-03-16T07:29:05.188Z,3.50
2024-03-16T07:33:08.719Z,4.20
2024-03-16T07:37:11.657Z,6.00
2024-03-16T07:41:15.083Z,6.30
2024-03-16T07:45:18.104Z,5.90
2024-03-16T07:49:21.926Z,4.50
2024-03-16T07:53:25.588Z,4.80
2024-03-16T07:57:31.270Z,5.50
2024-03-16T08:01:34.282Z,2.40
2024-03-16T08:05:37.600Z,2.60
2024-03-16T08:09:40.675Z,2.70
2024-03-16T08:13:43.809Z,2.10
2024-03-16T08:17:46.726Z,2.80
2024-03-16T08:21:50.559Z,1.90
2024-03-16T08:25:53.498Z,3.40
2024-03-16T08:29:56.459Z,2.40
2024-03-16T08:33:59.850Z,2.00
2024-03-16T08:38:03.011Z,1.60
2024-03-16T08:42:06.302Z,1.70
2024-03-16T08:46:09.302Z,2.30
2024-03-16T08:50:12.493Z,1.60
2024-03-16T08:54:15.407Z,1.90
2024-03-16T08:58:18.342Z,2.10
2024-03-16T09:02:22.320Z,1.90
2024-03-16T09:06:25.345Z,2.30
2024-03-16T09:10:28.291Z,2.00
2024-03-16T09:14:36.623Z,2.00
2024-03-16T09:18:40.699Z,1.50
2024-03-16T09:22:44.824Z,1.60
2024-03-16T09:26:47.741Z,1.70
2024-03-16T09:30:53.879Z,1.50
2024-03-16T09:34:59.129Z,1.60
2024-03-16T09:39:02.140Z,1.90
2024-03-16T09:43:11.742Z,1.60
2024-03-16T09:47:17.387Z,2.50
2024-03-16T09:51:21.472Z,2.10
2024-03-16T09:55:26.668Z,1.50
2024-03-16T09:59:31.113Z,1.90
2024-03-16T10:03:35.934Z,1.40
2024-03-16T10:07:42.178Z,1.00
2024-03-16T10:11:45.387Z,1.70
2024-03-16T10:15:48.302Z,1.40
2024-03-16T10:19:51.116Z,1.30
2024-03-16T10:23:54.693Z,1.80
2024-03-16T10:27:57.548Z,2.40
2024-03-16T10:32:02.044Z,1.70
2024-03-16T10:36:05.386Z,1.10
2024-03-16T10:40:17.758Z,1.30
2024-03-16T10:44:21.352Z,1.40
2024-03-16T10:48:24.288Z,1.30
2024-03-16T10:52:28.953Z,1.10
2024-03-16T10:56:33.585Z,1.10
2024-03-16T11:00:36.459Z,0.80
2024-03-16T11:04:51.616Z,1.30
2024-03-16T11:08:54.368Z,1.50
2024-03-16T11:13:30.525Z,0.70
2024-03-16T11:17:33.250Z,1.50
2024-03-16T11:21:39.037Z,1.50
2024-03-16T11:25:42.205Z,1.50
2024-03-16T11:30:29.788Z,1.20
2024-03-16T11:34:37.185Z,1.10
2024-03-16T11:38:40.119Z,1.70
2024-03-16T11:42:43.822Z,2.50
2024-03-16T11:46:48.382Z,1.70
2024-03-16T11:50:51.242Z,1.50
2024-03-16T11:54:54.021Z,1.80
2024-03-16T11:58:57.467Z,2.00
2024-03-16T12:03:07.772Z,1.30
2024-03-16T12:07:11.025Z,1.50
2024-03-16T12:11:13.817Z,2.40
2024-03-16T12:15:23.520Z,1.60
2024-03-16T12:19:26.324Z,1.80
2024-03-16T12:23:29.731Z,3.00
2024-03-16T12:27:34.331Z,2.20
2024-03-16T12:31:40.254Z,3.50
2024-03-16T12:35:43.085Z,2.50
2024-03-16T12:39:45.894Z,2.90
2024-03-16T12:43:48.565Z,2.90
2024-03-16T12:47:51.366Z,2.40
2024-03-16T12:51:54.127Z,4.20
2024-03-16T12:55:56.882Z,2.80
2024-03-16T13:00:00.414Z,1.50
2024-03-16T13:04:03.920Z,2.10
2024-03-16T13:08:06.715Z,1.00
2024-03-16T13:12:12.411Z,0.70
2024-03-16T13:16:16.668Z,1.50
2024-03-16T13:20:20.052Z,1.40
2024-03-16T13:24:23.943Z,1.80
2024-03-16T13:28:27.124Z,1.40
2024-03-16T13:32:30.298Z,1.50
2024-03-16T13:36:33.156Z,1.80
2024-03-16T13:40:36.008Z,1.50
2024-03-16T13:44:39.605Z,1.40
2024-03-16T13:48:42.644Z,0.90
2024-03-16T13:52:45.531Z,1.10
2024-03-16T13:56:48.313Z,0.80
2024-03-16T14:00:52.524Z,0.80
2024-03-16T14:04:55.815Z,1.10
2024-03-16T14:08:58.897Z,1.30
2024-03-16T14:13:01.676Z,1.40
2024-03-16T14:17:04.532Z,1.70
2024-03-16T14:21:07.699Z,2.90
2024-03-16T14:25:10.882Z,0.80
2024-03-16T14:29:13.723Z,0.20
2024-03-16T14:33:21.270Z,1.10
2024-03-16T14:37:24.173Z,1.30
2024-03-16T14:41:27.025Z,0.60
2024-03-16T14:45:31.772Z,0.60
2024-03-16T14:49:37.579Z,1.20
2024-03-16T14:53:40.484Z,1.20
2024-03-16T14:57:43.337Z,0.90
2024-03-16T15:01:46.432Z,1.10
2024-03-16T15:05:50.898Z,1.10
2024-03-16T15:09:53.937Z,1.10
2024-03-16T15:13:56.730Z,1.40
2024-03-16T15:17:59.608Z,1.20
2024-03-16T15:22:02.597Z,1.10
2024-03-16T15:26:07.476Z,1.40
2024-03-16T15:30:13.460Z,1.00
2024-03-16T15:38:19.588Z,1.70
2024-03-16T15:42:23.036Z,3.30
2024-03-16T15:46:25.980Z,2.30
2024-03-16T15:50:28.760Z,1.10
2024-03-16T15:54:31.627Z,2.10
2024-03-16T15:58:34.461Z,2.20
2024-03-16T16:02:37.244Z,2.70
2024-03-16T16:06:40.114Z,2.60
2024-03-16T16:10:45.398Z,1.70
2024-03-16T16:14:48.374Z,3.20
2024-03-16T16:18:52.229Z,2.80
2024-03-16T16:22:55.063Z,2.90
2024-03-16T16:26:59.343Z,2.00
2024-03-16T16:31:06.345Z,2.40
2024-03-16T16:35:09.154Z,2.40
2024-03-16T16:39:13.660Z,1.80
2024-03-16T16:43:16.882Z,1.90
2024-03-16T16:47:21.053Z,3.10
2024-03-16T16:51:25.724Z,2.80
2024-03-16T16:55:28.468Z,2.50
2024-03-16T16:59:31.240Z,1.50
2024-03-16T17:03:36.054Z,2.40
2024-03-16T17:07:39.197Z,1.20
2024-03-16T17:11:41.902Z,5.00
2024-03-16T17:15:44.759Z,3.20
2024-03-16T17:19:49.059Z,2.70
2024-03-16T17:23:53.477Z,3.20
2024-03-16T17:27:56.215Z,2.20
2024-03-16T17:31:59.000Z,2.60
2024-03-16T17:36:01.898Z,2.30
2024-03-16T17:40:05.678Z,3.20
2024-03-16T17:44:08.680Z,3.80
2024-03-16T17:48:11.448Z,5.10
2024-03-16T17:52:15.849Z,6.90
2024-03-16T17:56:18.677Z,5.60
2024-03-16T18:00:22.252Z,3.70
2024-03-16T18:04:25.178Z,2.10
2024-03-16T18:08:28.024Z,2.10
2024-03-16T18:12:30.756Z,2.40
2024-03-16T18:16:43.610Z,2.40
2024-03-16T18:20:47.315Z,2.00
2024-03-16T18:24:51.691Z,3.30
2024-03-16T18:28:54.742Z,3.50
2024-03-16T18:32:57.459Z,3.30
2024-03-16T18:37:00.342Z,4.30
2024-03-16T18:41:03.172Z,7.60
2024-03-16T18:45:07.508Z,5.40
2024-03-16T18:49:10.465Z,7.50
2024-03-16T18:53:13.268Z,6.30
2024-03-16T18:57:19.956Z,3.70
2024-03-16T19:01:22.716Z,4.30
2024-03-16T19:05:26.331Z,4.40
2024-03-16T19:09:29.293Z,4.20
2024-03-16T19:13:33.406Z,4.00
2024-03-16T19:17:40.299Z,3.60
2024-03-16T19:21:43.214Z,2.60
2024-03-16T19:25:46.174Z,2.70
2024-03-16T19:29:49.267Z,3.30
2024-03-16T19:33:52.059Z,3.60
2024-03-16T19:37:55.076Z,4.20
2024-03-16T19:41:57.976Z,4.50
2024-03-16T19:46:01.600Z,3.00
2024-03-16T19:50:04.887Z,3.00
2024-03-16T19:54:09.196Z,4.20
2024-03-16T19:58:11.907Z,3.90
2024-03-16T20:02:14.893Z,4.10
2024-03-16T20:06:17.731Z,4.60
2024-03-16T20:10:21.678Z,2.80
2024-03-16T20:14:25.225Z,4.40
2024-03-16T20:18:28.031Z,6.10
2024-03-16T20:22:31.026Z,6.00
2024-03-16T20:26:33.843Z,6.10
2024-03-16T20:30:36.701Z,6.20
2024-03-16T20:34:40.833Z,6.90
2024-03-16T20:38:43.672Z,6.20
2024-03-16T20:42:47.319Z,4.90
2024-03-16T20:46:50.189Z,5.00
2024-03-16T20:50:53.086Z,5.50
2024-03-16T20:54:55.993Z,6.00
2024-03-16T20:58:58.798Z,9.80
2024-03-16T21:03:02.298Z,13.30
2024-03-16T21:07:05.343Z,7.90
2024-03-16T21:11:09.398Z,6.00
2024-03-16T21:15:12.200Z,6.60
2024-03-16T21:19:15.087Z,5.70
2024-03-16T21:23:17.975Z,6.00
2024-03-16T21:27:20.964Z,6.30
2024-03-16T21:31:27.922Z,4.50
2024-03-16T21:35:32.010Z,4.10
2024-03-16T21:39:36.277Z,5.00
2024-03-16T21:43:39.055Z,5.60
2024-03-16T21:47:42.574Z,4.80
2024-03-16T21:51:46.232Z,3.90
2024-03-16T21:55:49.111Z,4.70
2024-03-16T21:59:52.103Z,4.00
2024-03-16T22:03:55.657Z,7.00
2024-03-16T22:08:04.651Z,6.40
2024-03-16T22:12:07.741Z,5.90
2024-03-16T22:16:10.547Z,4.50
2024-03-16T22:20:14.310Z,3.80
2024-03-16T22:24:17.373Z,4.80
2024-03-16T22:28:21.861Z,6.60
2024-03-16T22:32:25.092Z,4.40
2024-03-16T22:36:29.225Z,3.20
2024-03-16T22:40:32.283Z,3.80
2024-03-16T22:44:35.315Z,4.20
2024-03-16T22:48:38.060Z,5.20
2024-03-16T22:52:43.003Z,5.20
2024-03-16T22:56:46.081Z,4.30
2024-03-16T23:01:00.011Z,4.50
2024-03-16T23:05:03.299Z,5.00
2024-03-16T23:09:06.083Z,3.90
2024-03-16T23:13:09.297Z,4.60
2024-03-16T23:17:12.459Z,4.20
2024-03-16T23:21:16.694Z,3.40
2024-03-16T23:25:19.539Z,4.00
2024-03-16T23:29:25.007Z,2.00
2024-03-16T23:33:29.828Z,3.00
2024-03-16T23:37:34.652Z,3.80
2024-03-16T23:41:38.172Z,3.50
2024-03-16T23:45:42.034Z,3.40
2024-03-16T23:49:44.803Z,3.10
2024-03-16T23:53:48.145Z,3.80
2024-03-16T23:57:51.072Z,2.60
